sensor_id;sensor_type;location;lat;lon;timestamp;P1;durP1;ratioP1;P2;durP2;ratioP2
35777;SDS011;21899;42.662;23.316;2023-10-31T00:01:58;15.18;;;7.00;;
35777;SDS011;21899;42.662;23.316;2023-10-31T00:04:24;15.63;;;7.82;;
35777;SDS011;21899;42.662;23.316;2023-10-31T00:06:49;13.32;;;6.68;;
35777;SDS011;21899;42.662;23.316;2023-10-31T00:09:15;14.32;;;6.55;;
35777;SDS011;21899;42.662;23.316;2023-10-31T00:11:41;15.65;;;5.75;;
35777;SDS011;21899;42.662;23.316;2023-10-31T00:14:07;13.25;;;5.68;;
35777;SDS011;21899;42.662;23.316;2023-10-31T00:16:33;14.18;;;6.63;;
35777;SDS011;21899;42.662;23.316;2023-10-31T00:18:59;9.80;;;5.60;;
35777;SDS011;21899;42.662;23.316;2023-10-31T00:21:24;11.85;;;5.93;;
35777;SDS011;21899;42.662;23.316;2023-10-31T00:23:50;11.80;;;5.55;;
35777;SDS011;21899;42.662;23.316;2023-10-31T00:26:15;13.82;;;6.70;;
35777;SDS011;21899;42.662;23.316;2023-10-31T00:28:40;12.73;;;5.82;;
35777;SDS011;21899;42.662;23.316;2023-10-31T00:31:06;14.27;;;6.18;;
35777;SDS011;21899;42.662;23.316;2023-10-31T00:33:33;14.82;;;6.57;;
35777;SDS011;21899;42.662;23.316;2023-10-31T00:35:59;14.32;;;6.00;;
35777;SDS011;21899;42.662;23.316;2023-10-31T00:38:25;11.13;;;6.05;;
35777;SDS011;21899;42.662;23.316;2023-10-31T00:40:50;8.73;;;5.07;;
35777;SDS011;21899;42.662;23.316;2023-10-31T00:43:16;14.63;;;5.78;;
35777;SDS011;21899;42.662;23.316;2023-10-31T00:45:41;11.90;;;5.55;;
35777;SDS011;21899;42.662;23.316;2023-10-31T00:48:06;13.02;;;6.45;;
35777;SDS011;21899;42.662;23.316;2023-10-31T00:50:32;10.45;;;5.20;;
35777;SDS011;21899;42.662;23.316;2023-10-31T00:52:57;13.98;;;6.07;;
35777;SDS011;21899;42.662;23.316;2023-10-31T00:55:23;15.00;;;5.65;;
35777;SDS011;21899;42.662;23.316;2023-10-31T00:57:48;12.82;;;6.28;;
35777;SDS011;21899;42.662;23.316;2023-10-31T01:00:14;11.00;;;5.85;;
35777;SDS011;21899;42.662;23.316;2023-10-31T01:02:39;14.27;;;5.90;;
35777;SDS011;21899;42.662;23.316;2023-10-31T01:05:05;11.57;;;5.63;;
35777;SDS011;21899;42.662;23.316;2023-10-31T01:07:30;12.88;;;6.22;;
35777;SDS011;21899;42.662;23.316;2023-10-31T01:09:56;11.05;;;5.68;;
35777;SDS011;21899;42.662;23.316;2023-10-31T01:12:21;14.68;;;6.35;;
35777;SDS011;21899;42.662;23.316;2023-10-31T01:14:47;15.48;;;5.78;;
35777;SDS011;21899;42.662;23.316;2023-10-31T01:17:12;10.10;;;5.93;;
35777;SDS011;21899;42.662;23.316;2023-10-31T01:19:37;14.20;;;5.95;;
35777;SDS011;21899;42.662;23.316;2023-10-31T01:22:03;15.15;;;7.30;;
35777;SDS011;21899;42.662;23.316;2023-10-31T01:24:28;17.35;;;6.13;;
35777;SDS011;21899;42.662;23.316;2023-10-31T01:27:12;12.90;;;5.00;;
35777;SDS011;21899;42.662;23.316;2023-10-31T01:29:38;10.20;;;5.13;;
35777;SDS011;21899;42.662;23.316;2023-10-31T01:32:03;16.30;;;5.30;;
35777;SDS011;21899;42.662;23.316;2023-10-31T01:34:29;13.43;;;5.72;;
35777;SDS011;21899;42.662;23.316;2023-10-31T01:36:54;12.55;;;5.75;;
35777;SDS011;21899;42.662;23.316;2023-10-31T01:39:19;13.57;;;5.57;;
35777;SDS011;21899;42.662;23.316;2023-10-31T01:41:45;10.77;;;5.90;;
35777;SDS011;21899;42.662;23.316;2023-10-31T01:44:11;9.13;;;5.40;;
35777;SDS011;21899;42.662;23.316;2023-10-31T01:46:36;10.18;;;5.60;;
35777;SDS011;21899;42.662;23.316;2023-10-31T01:49:02;15.30;;;6.32;;
35777;SDS011;21899;42.662;23.316;2023-10-31T01:51:28;15.93;;;6.30;;
35777;SDS011;21899;42.662;23.316;2023-10-31T01:53:54;12.93;;;6.13;;
35777;SDS011;21899;42.662;23.316;2023-10-31T01:56:21;13.25;;;6.38;;
35777;SDS011;21899;42.662;23.316;2023-10-31T01:58:46;13.30;;;6.18;;
35777;SDS011;21899;42.662;23.316;2023-10-31T02:01:13;12.95;;;6.80;;
35777;SDS011;21899;42.662;23.316;2023-10-31T02:03:39;11.25;;;6.57;;
35777;SDS011;21899;42.662;23.316;2023-10-31T02:06:04;15.05;;;7.63;;
35777;SDS011;21899;42.662;23.316;2023-10-31T02:08:30;15.75;;;6.65;;
35777;SDS011;21899;42.662;23.316;2023-10-31T02:10:56;16.17;;;6.70;;
35777;SDS011;21899;42.662;23.316;2023-10-31T02:13:21;15.75;;;6.85;;
35777;SDS011;21899;42.662;23.316;2023-10-31T02:15:47;14.57;;;7.15;;
35777;SDS011;21899;42.662;23.316;2023-10-31T02:18:13;15.48;;;7.50;;
35777;SDS011;21899;42.662;23.316;2023-10-31T02:20:39;17.80;;;6.95;;
35777;SDS011;21899;42.662;23.316;2023-10-31T02:23:04;14.05;;;6.63;;
35777;SDS011;21899;42.662;23.316;2023-10-31T02:25:30;14.07;;;6.90;;
35777;SDS011;21899;42.662;23.316;2023-10-31T02:27:56;20.27;;;7.63;;
35777;SDS011;21899;42.662;23.316;2023-10-31T02:30:22;13.98;;;7.07;;
35777;SDS011;21899;42.662;23.316;2023-10-31T02:32:47;11.57;;;7.10;;
35777;SDS011;21899;42.662;23.316;2023-10-31T02:35:13;15.48;;;7.28;;
35777;SDS011;21899;42.662;23.316;2023-10-31T02:37:43;14.38;;;7.50;;
35777;SDS011;21899;42.662;23.316;2023-10-31T02:40:11;12.82;;;7.18;;
35777;SDS011;21899;42.662;23.316;2023-10-31T02:42:37;16.35;;;7.38;;
35777;SDS011;21899;42.662;23.316;2023-10-31T02:45:03;13.40;;;6.93;;
35777;SDS011;21899;42.662;23.316;2023-10-31T02:47:28;20.73;;;7.80;;
35777;SDS011;21899;42.662;23.316;2023-10-31T02:49:54;15.82;;;8.15;;
35777;SDS011;21899;42.662;23.316;2023-10-31T02:52:20;16.42;;;7.47;;
35777;SDS011;21899;42.662;23.316;2023-10-31T02:54:45;13.05;;;7.43;;
35777;SDS011;21899;42.662;23.316;2023-10-31T02:57:10;12.05;;;6.80;;
35777;SDS011;21899;42.662;23.316;2023-10-31T02:59:36;16.60;;;7.63;;
35777;SDS011;21899;42.662;23.316;2023-10-31T03:02:01;13.57;;;6.78;;
35777;SDS011;21899;42.662;23.316;2023-10-31T03:04:27;14.80;;;6.80;;
35777;SDS011;21899;42.662;23.316;2023-10-31T03:06:52;12.77;;;6.90;;
35777;SDS011;21899;42.662;23.316;2023-10-31T03:09:17;17.02;;;7.43;;
35777;SDS011;21899;42.662;23.316;2023-10-31T03:11:43;16.10;;;7.45;;
35777;SDS011;21899;42.662;23.316;2023-10-31T03:14:08;14.05;;;6.85;;
35777;SDS011;21899;42.662;23.316;2023-10-31T03:16:34;16.15;;;7.65;;
35777;SDS011;21899;42.662;23.316;2023-10-31T03:18:59;15.10;;;7.45;;
35777;SDS011;21899;42.662;23.316;2023-10-31T03:21:25;11.00;;;7.43;;
35777;SDS011;21899;42.662;23.316;2023-10-31T03:23:51;16.50;;;7.80;;
35777;SDS011;21899;42.662;23.316;2023-10-31T03:26:18;15.77;;;8.25;;
35777;SDS011;21899;42.662;23.316;2023-10-31T03:28:44;13.02;;;7.50;;
35777;SDS011;21899;42.662;23.316;2023-10-31T03:31:10;14.70;;;7.30;;
35777;SDS011;21899;42.662;23.316;2023-10-31T03:33:37;16.20;;;7.75;;
35777;SDS011;21899;42.662;23.316;2023-10-31T03:36:02;12.48;;;6.43;;
35777;SDS011;21899;42.662;23.316;2023-10-31T03:38:28;17.40;;;7.35;;
35777;SDS011;21899;42.662;23.316;2023-10-31T03:40:54;13.55;;;6.93;;
35777;SDS011;21899;42.662;23.316;2023-10-31T03:43:19;14.75;;;7.47;;
35777;SDS011;21899;42.662;23.316;2023-10-31T03:45:48;12.65;;;6.60;;
35777;SDS011;21899;42.662;23.316;2023-10-31T03:48:14;14.15;;;7.18;;
35777;SDS011;21899;42.662;23.316;2023-10-31T03:50:40;12.55;;;6.53;;
35777;SDS011;21899;42.662;23.316;2023-10-31T03:53:06;13.57;;;7.30;;
35777;SDS011;21899;42.662;23.316;2023-10-31T03:55:31;16.75;;;7.72;;
35777;SDS011;21899;42.662;23.316;2023-10-31T03:57:56;12.20;;;6.97;;
35777;SDS011;21899;42.662;23.316;2023-10-31T04:00:22;15.27;;;7.97;;
35777;SDS011;21899;42.662;23.316;2023-10-31T04:02:48;15.23;;;7.53;;
35777;SDS011;21899;42.662;23.316;2023-10-31T04:05:13;13.45;;;7.30;;
35777;SDS011;21899;42.662;23.316;2023-10-31T04:07:39;14.50;;;8.00;;
35777;SDS011;21899;42.662;23.316;2023-10-31T04:10:04;19.65;;;8.63;;
35777;SDS011;21899;42.662;23.316;2023-10-31T04:12:30;16.58;;;7.70;;
35777;SDS011;21899;42.662;23.316;2023-10-31T04:14:56;26.80;;;9.40;;
35777;SDS011;21899;42.662;23.316;2023-10-31T04:17:21;15.43;;;8.20;;
35777;SDS011;21899;42.662;23.316;2023-10-31T04:19:47;18.73;;;9.02;;
35777;SDS011;21899;42.662;23.316;2023-10-31T04:22:12;18.58;;;9.15;;
35777;SDS011;21899;42.662;23.316;2023-10-31T04:24:38;15.98;;;9.02;;
35777;SDS011;21899;42.662;23.316;2023-10-31T04:27:03;27.52;;;10.15;;
35777;SDS011;21899;42.662;23.316;2023-10-31T04:29:29;14.90;;;9.15;;
35777;SDS011;21899;42.662;23.316;2023-10-31T04:31:54;19.60;;;9.55;;
35777;SDS011;21899;42.662;23.316;2023-10-31T04:34:20;18.50;;;9.18;;
35777;SDS011;21899;42.662;23.316;2023-10-31T04:36:45;16.90;;;8.63;;
35777;SDS011;21899;42.662;23.316;2023-10-31T04:39:10;17.75;;;8.65;;
35777;SDS011;21899;42.662;23.316;2023-10-31T04:41:36;16.48;;;8.73;;
35777;SDS011;21899;42.662;23.316;2023-10-31T04:44:01;19.10;;;9.40;;
35777;SDS011;21899;42.662;23.316;2023-10-31T04:46:28;27.42;;;9.27;;
35777;SDS011;21899;42.662;23.316;2023-10-31T04:48:53;16.92;;;9.23;;
35777;SDS011;21899;42.662;23.316;2023-10-31T04:51:18;17.95;;;9.13;;
35777;SDS011;21899;42.662;23.316;2023-10-31T04:53:44;17.45;;;9.40;;
35777;SDS011;21899;42.662;23.316;2023-10-31T04:56:13;19.65;;;8.52;;
35777;SDS011;21899;42.662;23.316;2023-10-31T04:58:40;19.77;;;8.38;;
35777;SDS011;21899;42.662;23.316;2023-10-31T05:01:09;21.73;;;9.05;;
35777;SDS011;21899;42.662;23.316;2023-10-31T05:03:36;14.23;;;8.48;;
35777;SDS011;21899;42.662;23.316;2023-10-31T05:06:01;14.55;;;8.32;;
35777;SDS011;21899;42.662;23.316;2023-10-31T05:08:28;13.70;;;8.05;;
35777;SDS011;21899;42.662;23.316;2023-10-31T05:10:54;13.80;;;7.70;;
35777;SDS011;21899;42.662;23.316;2023-10-31T05:13:19;15.65;;;8.77;;
35777;SDS011;21899;42.662;23.316;2023-10-31T05:15:45;22.88;;;8.95;;
35777;SDS011;21899;42.662;23.316;2023-10-31T05:18:10;16.15;;;9.82;;
35777;SDS011;21899;42.662;23.316;2023-10-31T05:20:35;14.43;;;8.93;;
35777;SDS011;21899;42.662;23.316;2023-10-31T05:23:01;21.05;;;9.63;;
35777;SDS011;21899;42.662;23.316;2023-10-31T05:25:26;21.23;;;9.38;;
35777;SDS011;21899;42.662;23.316;2023-10-31T05:27:52;18.20;;;8.90;;
35777;SDS011;21899;42.662;23.316;2023-10-31T05:30:17;18.58;;;9.80;;
35777;SDS011;21899;42.662;23.316;2023-10-31T05:32:43;16.95;;;8.57;;
35777;SDS011;21899;42.662;23.316;2023-10-31T05:35:09;21.42;;;9.88;;
35777;SDS011;21899;42.662;23.316;2023-10-31T05:37:35;20.45;;;11.57;;
35777;SDS011;21899;42.662;23.316;2023-10-31T05:40:00;20.92;;;10.02;;
35777;SDS011;21899;42.662;23.316;2023-10-31T05:42:26;16.52;;;9.65;;
35777;SDS011;21899;42.662;23.316;2023-10-31T05:44:52;19.98;;;10.82;;
35777;SDS011;21899;42.662;23.316;2023-10-31T05:47:19;23.42;;;10.93;;
35777;SDS011;21899;42.662;23.316;2023-10-31T05:49:44;25.13;;;10.27;;
35777;SDS011;21899;42.662;23.316;2023-10-31T05:52:10;19.17;;;10.25;;
35777;SDS011;21899;42.662;23.316;2023-10-31T05:54:35;20.33;;;10.77;;
35777;SDS011;21899;42.662;23.316;2023-10-31T05:57:00;27.92;;;11.68;;
35777;SDS011;21899;42.662;23.316;2023-10-31T05:59:26;22.70;;;10.60;;
35777;SDS011;21899;42.662;23.316;2023-10-31T06:01:51;20.17;;;10.77;;
35777;SDS011;21899;42.662;23.316;2023-10-31T06:04:16;22.50;;;12.10;;
35777;SDS011;21899;42.662;23.316;2023-10-31T06:06:42;23.23;;;11.18;;
35777;SDS011;21899;42.662;23.316;2023-10-31T06:09:07;21.67;;;11.93;;
35777;SDS011;21899;42.662;23.316;2023-10-31T06:11:35;26.90;;;12.80;;
35777;SDS011;21899;42.662;23.316;2023-10-31T06:14:00;31.63;;;12.70;;
35777;SDS011;21899;42.662;23.316;2023-10-31T06:16:26;23.33;;;13.88;;
35777;SDS011;21899;42.662;23.316;2023-10-31T06:18:51;27.52;;;13.15;;
35777;SDS011;21899;42.662;23.316;2023-10-31T06:21:17;31.52;;;14.88;;
35777;SDS011;21899;42.662;23.316;2023-10-31T06:23:42;26.95;;;13.63;;
35777;SDS011;21899;42.662;23.316;2023-10-31T06:26:10;25.02;;;14.07;;
35777;SDS011;21899;42.662;23.316;2023-10-31T06:28:36;22.88;;;13.23;;
35777;SDS011;21899;42.662;23.316;2023-10-31T06:31:02;25.73;;;13.88;;
35777;SDS011;21899;42.662;23.316;2023-10-31T06:33:28;29.90;;;14.10;;
35777;SDS011;21899;42.662;23.316;2023-10-31T06:35:53;26.30;;;14.55;;
35777;SDS011;21899;42.662;23.316;2023-10-31T06:38:19;31.40;;;15.10;;
35777;SDS011;21899;42.662;23.316;2023-10-31T06:40:45;25.60;;;13.23;;
35777;SDS011;21899;42.662;23.316;2023-10-31T06:43:10;27.75;;;14.48;;
35777;SDS011;21899;42.662;23.316;2023-10-31T06:45:36;30.02;;;14.30;;
35777;SDS011;21899;42.662;23.316;2023-10-31T06:48:01;27.38;;;13.43;;
35777;SDS011;21899;42.662;23.316;2023-10-31T06:50:27;26.20;;;13.05;;
35777;SDS011;21899;42.662;23.316;2023-10-31T06:52:53;24.60;;;11.95;;
35777;SDS011;21899;42.662;23.316;2023-10-31T06:55:18;26.52;;;13.15;;
35777;SDS011;21899;42.662;23.316;2023-10-31T06:57:44;21.60;;;12.48;;
35777;SDS011;21899;42.662;23.316;2023-10-31T07:00:10;23.50;;;12.55;;
35777;SDS011;21899;42.662;23.316;2023-10-31T07:02:36;25.73;;;12.60;;
35777;SDS011;21899;42.662;23.316;2023-10-31T07:05:02;25.77;;;13.10;;
35777;SDS011;21899;42.662;23.316;2023-10-31T07:07:28;30.13;;;12.98;;
35777;SDS011;21899;42.662;23.316;2023-10-31T07:09:54;19.83;;;12.07;;
35777;SDS011;21899;42.662;23.316;2023-10-31T07:12:19;23.40;;;12.70;;
35777;SDS011;21899;42.662;23.316;2023-10-31T07:14:45;30.77;;;13.13;;
35777;SDS011;21899;42.662;23.316;2023-10-31T07:17:10;22.15;;;13.10;;
35777;SDS011;21899;42.662;23.316;2023-10-31T07:19:36;27.88;;;12.52;;
35777;SDS011;21899;42.662;23.316;2023-10-31T07:22:01;25.38;;;12.90;;
35777;SDS011;21899;42.662;23.316;2023-10-31T07:24:27;24.10;;;13.00;;
35777;SDS011;21899;42.662;23.316;2023-10-31T07:26:53;24.60;;;13.35;;
35777;SDS011;21899;42.662;23.316;2023-10-31T07:29:19;24.10;;;12.23;;
35777;SDS011;21899;42.662;23.316;2023-10-31T07:31:44;27.52;;;12.15;;
35777;SDS011;21899;42.662;23.316;2023-10-31T07:34:09;19.48;;;11.70;;
35777;SDS011;21899;42.662;23.316;2023-10-31T07:36:36;20.00;;;11.50;;
35777;SDS011;21899;42.662;23.316;2023-10-31T07:39:02;21.80;;;11.82;;
35777;SDS011;21899;42.662;23.316;2023-10-31T07:41:29;29.95;;;11.23;;
35777;SDS011;21899;42.662;23.316;2023-10-31T07:43:54;24.77;;;11.48;;
35777;SDS011;21899;42.662;23.316;2023-10-31T07:46:20;27.05;;;11.43;;
35777;SDS011;21899;42.662;23.316;2023-10-31T07:48:46;23.50;;;12.52;;
35777;SDS011;21899;42.662;23.316;2023-10-31T07:51:11;20.45;;;11.90;;
35777;SDS011;21899;42.662;23.316;2023-10-31T07:53:36;22.00;;;11.98;;
35777;SDS011;21899;42.662;23.316;2023-10-31T07:56:02;23.25;;;12.13;;
35777;SDS011;21899;42.662;23.316;2023-10-31T07:58:28;20.92;;;10.88;;
35777;SDS011;21899;42.662;23.316;2023-10-31T08:00:54;25.23;;;11.55;;
35777;SDS011;21899;42.662;23.316;2023-10-31T08:03:19;23.73;;;13.00;;
35777;SDS011;21899;42.662;23.316;2023-10-31T08:05:44;25.85;;;12.20;;
35777;SDS011;21899;42.662;23.316;2023-10-31T08:08:10;20.98;;;11.25;;
35777;SDS011;21899;42.662;23.316;2023-10-31T08:10:35;18.55;;;11.18;;
35777;SDS011;21899;42.662;23.316;2023-10-31T08:13:01;19.17;;;10.95;;
35777;SDS011;21899;42.662;23.316;2023-10-31T08:15:26;22.13;;;10.35;;
35777;SDS011;21899;42.662;23.316;2023-10-31T08:17:51;22.17;;;10.40;;
35777;SDS011;21899;42.662;23.316;2023-10-31T08:20:17;21.08;;;9.70;;
35777;SDS011;21899;42.662;23.316;2023-10-31T08:22:42;18.85;;;9.95;;
35777;SDS011;21899;42.662;23.316;2023-10-31T08:25:08;19.83;;;9.95;;
35777;SDS011;21899;42.662;23.316;2023-10-31T08:27:34;16.52;;;9.43;;
35777;SDS011;21899;42.662;23.316;2023-10-31T08:29:59;17.90;;;9.43;;
35777;SDS011;21899;42.662;23.316;2023-10-31T08:32:25;21.65;;;9.57;;
35777;SDS011;21899;42.662;23.316;2023-10-31T08:34:50;18.77;;;9.63;;
35777;SDS011;21899;42.662;23.316;2023-10-31T08:37:16;19.38;;;10.07;;
35777;SDS011;21899;42.662;23.316;2023-10-31T08:39:41;21.98;;;10.45;;
35777;SDS011;21899;42.662;23.316;2023-10-31T08:42:07;18.40;;;8.25;;
35777;SDS011;21899;42.662;23.316;2023-10-31T08:44:33;17.02;;;7.70;;
35777;SDS011;21899;42.662;23.316;2023-10-31T08:46:59;13.68;;;8.02;;
35777;SDS011;21899;42.662;23.316;2023-10-31T08:49:25;17.33;;;8.27;;
35777;SDS011;21899;42.662;23.316;2023-10-31T08:51:50;16.23;;;7.63;;
35777;SDS011;21899;42.662;23.316;2023-10-31T08:54:15;13.63;;;7.53;;
35777;SDS011;21899;42.662;23.316;2023-10-31T08:56:41;18.10;;;8.00;;
35777;SDS011;21899;42.662;23.316;2023-10-31T08:59:06;22.65;;;8.85;;
35777;SDS011;21899;42.662;23.316;2023-10-31T09:01:32;11.57;;;7.10;;
35777;SDS011;21899;42.662;23.316;2023-10-31T09:03:59;17.73;;;6.93;;
35777;SDS011;21899;42.662;23.316;2023-10-31T09:06:24;19.27;;;6.88;;
35777;SDS011;21899;42.662;23.316;2023-10-31T09:08:50;13.27;;;6.15;;
35777;SDS011;21899;42.662;23.316;2023-10-31T09:11:15;12.95;;;6.00;;
35777;SDS011;21899;42.662;23.316;2023-10-31T09:13:41;21.13;;;9.65;;
35777;SDS011;21899;42.662;23.316;2023-10-31T09:16:07;12.15;;;5.60;;
35777;SDS011;21899;42.662;23.316;2023-10-31T09:18:33;14.93;;;5.50;;
35777;SDS011;21899;42.662;23.316;2023-10-31T09:20:58;15.60;;;5.78;;
35777;SDS011;21899;42.662;23.316;2023-10-31T09:23:23;20.02;;;5.05;;
35777;SDS011;21899;42.662;23.316;2023-10-31T09:25:49;15.30;;;6.93;;
35777;SDS011;21899;42.662;23.316;2023-10-31T09:28:14;12.65;;;5.82;;
35777;SDS011;21899;42.662;23.316;2023-10-31T09:30:40;12.20;;;6.10;;
35777;SDS011;21899;42.662;23.316;2023-10-31T09:33:05;10.88;;;5.47;;
35777;SDS011;21899;42.662;23.316;2023-10-31T09:35:31;12.80;;;5.63;;
35777;SDS011;21899;42.662;23.316;2023-10-31T09:37:56;10.98;;;5.38;;
35777;SDS011;21899;42.662;23.316;2023-10-31T09:40:22;12.25;;;5.45;;
35777;SDS011;21899;42.662;23.316;2023-10-31T09:42:48;15.35;;;5.07;;
35777;SDS011;21899;42.662;23.316;2023-10-31T09:45:16;13.65;;;4.60;;
35777;SDS011;21899;42.662;23.316;2023-10-31T09:47:42;10.07;;;4.25;;
35777;SDS011;21899;42.662;23.316;2023-10-31T09:50:08;10.20;;;4.80;;
35777;SDS011;21899;42.662;23.316;2023-10-31T09:52:35;8.00;;;4.07;;
35777;SDS011;21899;42.662;23.316;2023-10-31T09:55:01;14.43;;;4.93;;
35777;SDS011;21899;42.662;23.316;2023-10-31T09:57:28;10.13;;;4.18;;
35777;SDS011;21899;42.662;23.316;2023-10-31T09:59:53;7.28;;;3.85;;
35777;SDS011;21899;42.662;23.316;2023-10-31T10:02:19;14.32;;;4.68;;
35777;SDS011;21899;42.662;23.316;2023-10-31T10:04:44;10.30;;;4.60;;
35777;SDS011;21899;42.662;23.316;2023-10-31T10:07:13;9.48;;;4.22;;
35777;SDS011;21899;42.662;23.316;2023-10-31T10:09:42;11.13;;;5.30;;
35777;SDS011;21899;42.662;23.316;2023-10-31T10:12:07;13.88;;;6.32;;
35777;SDS011;21899;42.662;23.316;2023-10-31T10:14:36;9.13;;;5.05;;
35777;SDS011;21899;42.662;23.316;2023-10-31T10:17:08;11.70;;;5.32;;
35777;SDS011;21899;42.662;23.316;2023-10-31T10:19:43;8.20;;;5.10;;
35777;SDS011;21899;42.662;23.316;2023-10-31T10:22:09;12.80;;;5.50;;
35777;SDS011;21899;42.662;23.316;2023-10-31T10:24:35;9.82;;;4.95;;
35777;SDS011;21899;42.662;23.316;2023-10-31T10:27:03;10.30;;;4.43;;
35777;SDS011;21899;42.662;23.316;2023-10-31T10:29:29;11.82;;;4.65;;
35777;SDS011;21899;42.662;23.316;2023-10-31T10:31:54;9.57;;;4.50;;
35777;SDS011;21899;42.662;23.316;2023-10-31T10:34:20;14.07;;;5.22;;
35777;SDS011;21899;42.662;23.316;2023-10-31T10:36:48;16.77;;;5.22;;
35777;SDS011;21899;42.662;23.316;2023-10-31T10:39:16;10.63;;;4.63;;
35777;SDS011;21899;42.662;23.316;2023-10-31T10:41:45;11.50;;;3.88;;
35777;SDS011;21899;42.662;23.316;2023-10-31T10:44:16;8.77;;;3.72;;
35777;SDS011;21899;42.662;23.316;2023-10-31T10:46:43;7.85;;;3.70;;
35777;SDS011;21899;42.662;23.316;2023-10-31T10:49:15;9.98;;;3.95;;
35777;SDS011;21899;42.662;23.316;2023-10-31T10:52:01;10.10;;;3.83;;
35777;SDS011;21899;42.662;23.316;2023-10-31T10:54:37;12.25;;;4.15;;
35777;SDS011;21899;42.662;23.316;2023-10-31T10:57:15;9.93;;;3.92;;
35777;SDS011;21899;42.662;23.316;2023-10-31T11:00:02;7.07;;;3.35;;
35777;SDS011;21899;42.662;23.316;2023-10-31T11:02:30;10.70;;;3.80;;
35777;SDS011;21899;42.662;23.316;2023-10-31T11:04:57;5.97;;;3.25;;
35777;SDS011;21899;42.662;23.316;2023-10-31T11:07:24;9.35;;;3.30;;
35777;SDS011;21899;42.662;23.316;2023-10-31T11:09:52;15.70;;;3.55;;
35777;SDS011;21899;42.662;23.316;2023-10-31T11:12:19;7.80;;;3.05;;
35777;SDS011;21899;42.662;23.316;2023-10-31T11:14:47;7.75;;;2.75;;
35777;SDS011;21899;42.662;23.316;2023-10-31T11:17:30;7.03;;;3.25;;
35777;SDS011;21899;42.662;23.316;2023-10-31T11:19:59;9.98;;;3.25;;
35777;SDS011;21899;42.662;23.316;2023-10-31T11:22:25;8.85;;;3.55;;
35777;SDS011;21899;42.662;23.316;2023-10-31T11:24:51;8.15;;;3.20;;
35777;SDS011;21899;42.662;23.316;2023-10-31T11:27:17;8.70;;;3.08;;
35777;SDS011;21899;42.662;23.316;2023-10-31T11:29:43;6.82;;;3.00;;
35777;SDS011;21899;42.662;23.316;2023-10-31T11:32:09;7.32;;;2.83;;
35777;SDS011;21899;42.662;23.316;2023-10-31T11:34:39;13.20;;;2.92;;
35777;SDS011;21899;42.662;23.316;2023-10-31T11:37:19;8.82;;;4.50;;
35777;SDS011;21899;42.662;23.316;2023-10-31T11:42:49;10.73;;;3.70;;
35777;SDS011;21899;42.662;23.316;2023-10-31T11:48:02;11.00;;;4.60;;
35777;SDS011;21899;42.662;23.316;2023-10-31T11:50:32;6.90;;;3.28;;
35777;SDS011;21899;42.662;23.316;2023-10-31T11:52:58;7.40;;;3.38;;
35777;SDS011;21899;42.662;23.316;2023-10-31T11:55:27;11.02;;;4.35;;
35777;SDS011;21899;42.662;23.316;2023-10-31T11:57:53;7.68;;;3.53;;
35777;SDS011;21899;42.662;23.316;2023-10-31T12:00:22;10.48;;;3.42;;
35777;SDS011;21899;42.662;23.316;2023-10-31T12:03:01;6.68;;;3.00;;
35777;SDS011;21899;42.662;23.316;2023-10-31T12:05:27;9.35;;;3.33;;
35777;SDS011;21899;42.662;23.316;2023-10-31T12:07:53;11.02;;;3.83;;
35777;SDS011;21899;42.662;23.316;2023-10-31T12:10:25;7.03;;;3.28;;
35777;SDS011;21899;42.662;23.316;2023-10-31T12:12:55;7.50;;;3.53;;
35777;SDS011;21899;42.662;23.316;2023-10-31T12:15:21;8.00;;;3.35;;
35777;SDS011;21899;42.662;23.316;2023-10-31T12:17:47;9.38;;;4.97;;
35777;SDS011;21899;42.662;23.316;2023-10-31T12:20:13;10.13;;;5.63;;
35777;SDS011;21899;42.662;23.316;2023-10-31T12:22:39;11.65;;;3.97;;
35777;SDS011;21899;42.662;23.316;2023-10-31T12:25:06;7.45;;;3.60;;
35777;SDS011;21899;42.662;23.316;2023-10-31T12:27:48;11.35;;;4.03;;
35777;SDS011;21899;42.662;23.316;2023-10-31T12:30:16;9.07;;;3.67;;
35777;SDS011;21899;42.662;23.316;2023-10-31T12:32:43;14.65;;;4.22;;
35777;SDS011;21899;42.662;23.316;2023-10-31T12:35:13;14.50;;;3.70;;
35777;SDS011;21899;42.662;23.316;2023-10-31T12:37:44;7.90;;;3.60;;
35777;SDS011;21899;42.662;23.316;2023-10-31T12:40:12;12.27;;;4.07;;
35777;SDS011;21899;42.662;23.316;2023-10-31T12:42:40;14.13;;;3.80;;
35777;SDS011;21899;42.662;23.316;2023-10-31T12:45:06;8.07;;;4.30;;
35777;SDS011;21899;42.662;23.316;2023-10-31T12:47:33;10.65;;;4.07;;
35777;SDS011;21899;42.662;23.316;2023-10-31T12:50:12;10.55;;;3.65;;
35777;SDS011;21899;42.662;23.316;2023-10-31T12:52:46;8.32;;;3.97;;
35777;SDS011;21899;42.662;23.316;2023-10-31T12:55:12;4.47;;;3.17;;
35777;SDS011;21899;42.662;23.316;2023-10-31T12:57:39;9.32;;;3.70;;
35777;SDS011;21899;42.662;23.316;2023-10-31T13:00:04;10.68;;;4.63;;
35777;SDS011;21899;42.662;23.316;2023-10-31T13:02:34;12.90;;;4.10;;
35777;SDS011;21899;42.662;23.316;2023-10-31T13:05:12;11.43;;;4.68;;
35777;SDS011;21899;42.662;23.316;2023-10-31T13:07:38;9.68;;;4.20;;
35777;SDS011;21899;42.662;23.316;2023-10-31T13:10:15;8.48;;;3.95;;
35777;SDS011;21899;42.662;23.316;2023-10-31T13:12:50;7.80;;;3.80;;
35777;SDS011;21899;42.662;23.316;2023-10-31T13:15:17;6.85;;;3.60;;
35777;SDS011;21899;42.662;23.316;2023-10-31T13:17:45;7.97;;;3.70;;
35777;SDS011;21899;42.662;23.316;2023-10-31T13:20:11;13.35;;;4.60;;
35777;SDS011;21899;42.662;23.316;2023-10-31T13:22:38;8.95;;;3.53;;
35777;SDS011;21899;42.662;23.316;2023-10-31T13:25:05;11.80;;;4.65;;
35777;SDS011;21899;42.662;23.316;2023-10-31T13:27:39;10.23;;;3.97;;
35777;SDS011;21899;42.662;23.316;2023-10-31T13:30:06;9.25;;;3.58;;
35777;SDS011;21899;42.662;23.316;2023-10-31T13:32:33;8.68;;;4.25;;
35777;SDS011;21899;42.662;23.316;2023-10-31T13:34:58;10.48;;;4.22;;
35777;SDS011;21899;42.662;23.316;2023-10-31T13:37:24;10.35;;;4.03;;
35777;SDS011;21899;42.662;23.316;2023-10-31T13:39:50;7.75;;;3.53;;
35777;SDS011;21899;42.662;23.316;2023-10-31T13:42:15;13.45;;;4.32;;
35777;SDS011;21899;42.662;23.316;2023-10-31T13:44:41;7.72;;;3.72;;
35777;SDS011;21899;42.662;23.316;2023-10-31T13:47:07;13.27;;;3.90;;
35777;SDS011;21899;42.662;23.316;2023-10-31T13:49:32;9.40;;;3.90;;
35777;SDS011;21899;42.662;23.316;2023-10-31T13:51:58;10.52;;;4.13;;
35777;SDS011;21899;42.662;23.316;2023-10-31T13:54:24;8.90;;;5.53;;
35777;SDS011;21899;42.662;23.316;2023-10-31T13:56:49;13.63;;;4.30;;
35777;SDS011;21899;42.662;23.316;2023-10-31T13:59:15;12.20;;;4.15;;
35777;SDS011;21899;42.662;23.316;2023-10-31T14:01:40;10.68;;;4.25;;
35777;SDS011;21899;42.662;23.316;2023-10-31T14:04:07;14.18;;;4.75;;
35777;SDS011;21899;42.662;23.316;2023-10-31T14:06:33;14.45;;;5.25;;
35777;SDS011;21899;42.662;23.316;2023-10-31T14:08:59;12.80;;;4.82;;
35777;SDS011;21899;42.662;23.316;2023-10-31T14:11:29;13.38;;;4.65;;
35777;SDS011;21899;42.662;23.316;2023-10-31T14:13:55;11.55;;;4.43;;
35777;SDS011;21899;42.662;23.316;2023-10-31T14:16:24;17.08;;;4.38;;
35777;SDS011;21899;42.662;23.316;2023-10-31T14:18:50;11.75;;;4.20;;
35777;SDS011;21899;42.662;23.316;2023-10-31T14:21:15;10.93;;;4.05;;
35777;SDS011;21899;42.662;23.316;2023-10-31T14:23:41;13.77;;;5.13;;